Time;durP1;ratioP1;P1;durP2;ratioP2;P2;SDS_P1;SDS_P2;PMS_P1;PMS_P2;Temp;Humidity;BMP_temperature;BMP_pressure;BME280_temperature;BME280_humidity;BME280_pressure;Samples;Min_cycle;Max_cycle;Signal;HPM_P1;HPM_P2
2021/12/13 00:00:19;;;;;;;3.80;3.50;;;;;;;6.18;69.05;99414.00;5071396;28;20230;-56
2021/12/13 00:02:53;;;;;;;4.43;4.03;;;;;;;6.12;68.95;99420.63;5072954;28;20214;-56
2021/12/13 00:05:25;;;;;;;4.03;3.63;;;;;;;6.15;68.10;99413.06;5072959;28;20288;-56
2021/12/13 00:07:57;;;;;;;3.57;3.27;;;;;;;6.17;68.17;99426.72;5072845;28;20320;-56
2021/12/13 00:10:32;;;;;;;3.20;2.90;;;;;;;6.09;67.26;99428.16;5072809;28;20189;-56
2021/12/13 00:13:03;;;;;;;3.70;3.40;;;;;;;6.17;66.90;99432.72;5073077;28;20205;-56
2021/12/13 00:15:35;;;;;;;3.60;3.30;;;;;;;6.16;66.61;99435.19;5072713;28;20291;-56
2021/12/13 00:18:06;;;;;;;5.93;3.70;;;;;;;6.20;66.48;99435.34;5072849;28;20189;-56
2021/12/13 00:20:41;;;;;;;4.53;4.13;;;;;;;6.19;66.86;99425.09;5071822;28;20441;-56
2021/12/13 00:23:18;;;;;;;3.50;3.20;;;;;;;6.31;65.42;99433.16;5072612;28;20290;-56
2021/12/13 00:25:48;;;;;;;3.97;3.67;;;;;;;6.26;65.96;99435.53;5072787;28;20197;-56
2021/12/13 00:28:17;;;;;;;4.10;3.70;;;;;;;6.26;65.62;99443.19;5072741;28;20200;-56
2021/12/13 00:31:01;;;;;;;3.60;3.30;;;;;;;6.27;65.67;99444.94;5072269;28;20227;-56
2021/12/13 00:33:37;;;;;;;5.10;3.60;;;;;;;6.25;65.82;99440.59;5095345;28;20188;-56
2021/12/13 00:36:10;;;;;;;3.67;3.37;;;;;;;6.26;65.31;99445.72;5076568;28;20566;-56
2021/12/13 00:38:45;;;;;;;4.18;3.78;;;;;;;6.29;65.20;99445.00;5071532;28;20471;-56
2021/12/13 00:41:16;;;;;;;3.77;3.47;;;;;;;6.32;64.81;99447.63;5072691;28;20185;-56
2021/12/13 00:43:49;;;;;;;3.77;3.47;;;;;;;6.39;64.79;99441.91;5072434;28;20201;-56
2021/12/13 00:46:18;;;;;;;4.40;4.10;;;;;;;6.34;64.93;99439.22;5072569;28;20284;-56
2021/12/13 00:48:52;;;;;;;3.20;3.00;;;;;;;6.30;64.38;99441.59;5072436;28;20184;-56
2021/12/13 00:51:25;;;;;;;3.90;3.60;;;;;;;6.29;63.94;99438.19;5088614;28;20443;-56
2021/12/13 00:53:54;;;;;;;3.80;3.50;;;;;;;6.30;64.22;99439.06;5080804;28;20187;-56
2021/12/13 00:56:48;;;;;;;3.75;3.45;;;;;;;6.29;64.49;99425.44;5091311;28;20534;-56
2021/12/13 00:59:23;;;;;;;3.20;2.93;;;;;;;6.40;63.70;99441.09;5071824;28;20212;-56
2021/12/13 01:01:56;;;;;;;3.43;3.13;;;;;;;6.31;63.61;99440.81;5081930;28;20242;-56
2021/12/13 01:04:43;;;;;;;3.37;2.70;;;;;;;6.24;63.79;99446.50;5081496;28;20205;-56
2021/12/13 01:07:57;;;;;;;3.33;3.00;;;;;;;6.20;64.03;99443.00;5079871;28;20203;-56
2021/12/13 01:11:00;;;;;;;3.97;3.67;;;;;;;6.32;64.49;99434.84;5080323;28;20448;-57
2021/12/13 01:13:32;;;;;;;3.67;3.37;;;;;;;6.32;63.83;99433.19;5081849;28;20189;-56
2021/12/13 01:16:12;;;;;;;3.33;3.03;;;;;;;6.26;64.29;99435.53;5080776;28;20284;-56
2021/12/13 01:18:59;;;;;;;3.27;2.97;;;;;;;6.27;64.71;99436.41;5081458;28;20193;-56
2021/12/13 01:21:38;;;;;;;3.20;2.90;;;;;;;6.27;63.99;99442.38;5081581;28;20484;-56
2021/12/13 01:24:11;;;;;;;3.27;2.97;;;;;;;6.28;63.32;99438.16;5079205;28;20302;-57
2021/12/13 01:26:41;;;;;;;3.17;2.97;;;;;;;6.15;64.46;99444.56;5082056;28;20283;-56
2021/12/13 01:29:12;;;;;;;3.80;3.43;;;;;;;6.15;63.98;99436.91;5099362;28;20200;-56
2021/12/13 01:31:44;;;;;;;3.33;3.03;;;;;;;6.15;64.05;99436.91;5111743;28;20254;-56
2021/12/13 01:34:14;;;;;;;3.37;3.07;;;;;;;6.19;64.49;99448.03;5111740;28;20277;-56
2021/12/13 01:36:47;;;;;;;3.50;3.20;;;;;;;6.15;64.05;99442.00;5111967;28;20201;-56
2021/12/13 01:39:17;;;;;;;3.30;3.10;;;;;;;6.15;64.33;99436.03;5111672;28;20801;-56
2021/12/13 01:41:46;;;;;;;3.70;3.40;;;;;;;6.07;64.91;99430.66;5111793;28;20287;-56
2021/12/13 01:44:16;;;;;;;3.53;3.23;;;;;;;6.08;64.13;99434.94;5111458;28;20218;-56
2021/12/13 01:46:48;;;;;;;3.53;3.22;;;;;;;6.08;65.19;99431.53;5110511;28;20441;-56
2021/12/13 01:49:19;;;;;;;3.67;3.10;;;;;;;6.14;63.83;99435.16;5111669;28;20285;-56
2021/12/13 01:51:46;;;;;;;3.72;3.42;;;;;;;6.22;64.42;99423.50;5110494;28;20492;-56
2021/12/13 01:54:18;;;;;;;3.83;3.37;;;;;;;6.20;63.73;99424.28;5112352;28;20205;-59
2021/12/13 01:56:54;;;;;;;3.63;3.33;;;;;;;5.88;64.00;99390.06;5111763;28;20287;-56
2021/12/13 01:59:43;;;;;;;3.43;3.13;;;;;;;6.11;64.60;99434.19;5111488;28;20577;-56
2021/12/13 02:02:15;;;;;;;2.97;2.67;;;;;;;6.07;64.79;99428.09;5111399;28;20194;-56
2021/12/13 02:04:46;;;;;;;3.63;3.33;;;;;;;6.05;63.99;99423.78;5111001;28;20217;-56
2021/12/13 02:07:14;;;;;;;3.23;3.00;;;;;;;5.99;64.55;99428.69;5111606;28;20195;-56
2021/12/13 02:09:43;;;;;;;3.40;3.10;;;;;;;5.93;64.51;99434.47;5111587;28;20206;-56
2021/12/13 02:12:14;;;;;;;4.17;3.60;;;;;;;5.92;64.95;99433.59;5111308;28;20218;-56
2021/12/13 02:14:47;;;;;;;3.63;3.33;;;;;;;5.96;65.05;99423.50;5111208;28;20191;-56
2021/12/13 02:17:17;;;;;;;4.03;3.10;;;;;;;5.97;65.42;99431.19;5111007;28;20186;-56
2021/12/13 02:19:52;;;;;;;3.07;2.77;;;;;;;5.91;65.21;99421.63;5111141;28;20194;-56
2021/12/13 02:22:40;;;;;;;3.30;3.10;;;;;;;5.88;65.05;99419.00;5110450;28;20200;-56
2021/12/13 02:25:16;;;;;;;3.30;3.03;;;;;;;5.89;65.72;99417.31;5110912;28;20221;-56
2021/12/13 02:27:47;;;;;;;3.67;3.30;;;;;;;5.85;65.00;99418.03;5111115;28;20743;-55
2021/12/13 02:30:19;;;;;;;3.43;2.97;;;;;;;5.86;64.48;99428.28;5110824;28;20197;-56
2021/12/13 02:32:47;;;;;;;3.10;2.80;;;;;;;5.87;65.37;99431.69;5111263;28;20254;-56
2021/12/13 02:35:16;;;;;;;3.10;2.83;;;;;;;5.95;65.61;99437.91;5111088;28;20661;-56
2021/12/13 02:37:45;;;;;;;3.03;2.83;;;;;;;5.94;64.91;99431.06;5110983;28;20231;-56
2021/12/13 02:40:15;;;;;;;2.93;2.73;;;;;;;5.98;65.07;99440.56;5110681;28;20525;-56
2021/12/13 02:42:43;;;;;;;3.13;2.93;;;;;;;6.02;64.29;99444.94;5110636;28;20258;-56
2021/12/13 02:45:15;;;;;;;2.67;2.47;;;;;;;5.93;65.14;99437.00;5110534;28;20251;-56
2021/12/13 02:47:50;;;;;;;2.83;2.63;;;;;;;5.78;64.20;99416.91;5110638;28;20692;-56
2021/12/13 02:50:24;;;;;;;3.23;3.00;;;;;;;5.99;64.95;99447.38;5110816;28;20287;-56
2021/12/13 02:52:52;;;;;;;2.90;2.70;;;;;;;5.96;64.44;99449.81;5111121;28;20204;-55
2021/12/13 02:55:28;;;;;;;3.03;2.83;;;;;;;5.91;64.95;99457.34;5110866;28;20190;-56
2021/12/13 02:57:57;;;;;;;3.03;2.73;;;;;;;5.97;64.49;99455.81;5110478;28;20200;-55
2021/12/13 03:00:29;;;;;;;2.67;2.30;;;;;;;5.97;64.11;99461.78;5110755;28;20279;-56
2021/12/13 03:02:59;;;;;;;2.77;2.53;;;;;;;5.93;64.39;99445.50;5110626;28;20190;-56
2021/12/13 03:05:29;;;;;;;2.43;2.23;;;;;;;5.96;64.31;99449.81;5110681;28;20223;-56
2021/12/13 03:08:02;;;;;;;2.60;2.40;;;;;;;6.00;63.88;99444.03;5110517;28;20190;-55
2021/12/13 03:10:39;;;;;;;2.20;2.10;;;;;;;6.04;64.28;99447.56;5110581;28;20285;-56
2021/12/13 03:13:06;;;;;;;2.97;2.67;;;;;;;6.09;64.27;99454.53;5110409;28;20247;-56
2021/12/13 03:15:35;;;;;;;4.20;2.90;;;;;;;6.16;63.51;99440.28;5110576;28;20294;-56
2021/12/13 03:18:10;;;;;;;2.80;2.60;;;;;;;6.17;63.69;99440.34;5110657;28;20209;-56
2021/12/13 03:20:57;;;;;;;2.23;2.13;;;;;;;6.11;64.27;99444.38;5110811;28;20191;-55
2021/12/13 03:23:36;;;;;;;2.70;2.50;;;;;;;6.10;64.07;99448.59;5110184;28;20188;-56
2021/12/13 03:26:26;;;;;;;3.17;2.87;;;;;;;6.11;63.74;99440.16;5110404;28;20281;-56
2021/12/13 03:29:06;;;;;;;2.60;2.40;;;;;;;6.14;63.95;99449.59;5110172;28;20228;-56
2021/12/13 03:31:40;;;;;;;2.53;2.33;;;;;;;6.15;64.53;99449.66;5110177;28;20222;-56
2021/12/13 03:34:09;;;;;;;2.33;2.23;;;;;;;6.09;64.26;99444.34;5112241;28;20189;-55
2021/12/13 03:36:48;;;;;;;2.75;2.55;;;;;;;6.13;63.50;99446.16;5113506;28;20927;-56
2021/12/13 03:39:20;;;;;;;2.50;2.30;;;;;;;6.15;63.84;99446.22;5114005;28;20655;-56
2021/12/13 03:41:49;;;;;;;2.70;2.50;;;;;;;6.10;63.94;99453.72;5114098;28;20632;-56
2021/12/13 03:44:19;;;;;;;3.20;2.40;;;;;;;6.06;64.49;99454.44;5113762;28;20224;-57
2021/12/13 03:46:48;;;;;;;2.60;2.40;;;;;;;6.06;63.89;99467.19;5113918;28;20182;-56
2021/12/13 03:49:18;;;;;;;4.87;2.30;;;;;;;6.03;64.59;99471.31;5107871;28;20279;-56
2021/12/13 03:51:46;;;;;;;2.30;2.10;;;;;;;6.03;64.47;99464.53;5092759;28;20207;-55
2021/12/13 03:54:18;;;;;;;2.20;2.10;;;;;;;6.09;64.06;99476.63;5093833;28;20301;-55
2021/12/13 03:56:48;;;;;;;3.40;2.27;;;;;;;5.99;64.84;99461.84;5093429;28;20547;-55
2021/12/13 03:59:19;;;;;;;3.90;2.23;;;;;;;5.96;64.53;99479.59;5093138;28;20188;-55
2021/12/13 04:01:51;;;;;;;2.10;2.00;;;;;;;5.94;64.89;99480.38;5093457;28;20202;-55
2021/12/13 04:04:22;;;;;;;3.60;2.83;;;;;;;6.00;65.10;99476.31;5093388;28;20596;-55
2021/12/13 04:06:53;;;;;;;2.50;2.30;;;;;;;6.00;64.79;99483.97;5093546;28;20190;-55
2021/12/13 04:09:24;;;;;;;2.70;2.50;;;;;;;6.00;64.98;99496.72;5092309;28;20439;-56
2021/12/13 04:11:55;;;;;;;2.60;2.40;;;;;;;6.01;64.41;99481.47;5093012;28;20188;-55
2021/12/13 04:14:29;;;;;;;2.67;2.47;;;;;;;6.06;64.98;99492.69;5092337;28;20497;-56
2021/12/13 04:17:07;;;;;;;2.50;2.27;;;;;;;6.16;64.88;99484.53;5092910;28;20192;-55
2021/12/13 04:19:47;;;;;;;2.60;2.40;;;;;;;6.23;64.76;99494.13;5092931;28;20230;-56
2021/12/13 04:22:17;;;;;;;2.10;2.00;;;;;;;6.19;65.14;99488.84;5093132;28;20201;-56
2021/12/13 04:24:49;;;;;;;3.10;2.17;;;;;;;6.12;65.20;99498.00;5093086;28;20277;-56
2021/12/13 04:27:20;;;;;;;2.40;2.20;;;;;;;6.06;65.68;99495.25;5092175;28;20917;-55
2021/12/13 04:29:50;;;;;;;2.53;2.20;;;;;;;6.06;65.89;99479.06;5092648;28;20197;-55
2021/12/13 04:32:21;;;;;;;2.30;2.10;;;;;;;5.91;66.51;99493.03;5092669;28;20242;-56
2021/12/13 04:34:51;;;;;;;2.87;2.37;;;;;;;5.95;66.25;99488.91;5093028;28;20187;-55
2021/12/13 04:37:21;;;;;;;3.03;2.70;;;;;;;5.94;66.55;99492.25;5092573;28;20221;-56
2021/12/13 04:39:54;;;;;;;3.60;2.50;;;;;;;5.91;66.15;99492.16;5092278;28;20655;-56
2021/12/13 04:42:23;;;;;;;2.30;2.20;;;;;;;5.92;66.28;99493.91;5092524;28;20195;-56
2021/12/13 04:44:56;;;;;;;2.70;2.17;;;;;;;5.96;66.36;99498.28;5091383;28;20535;-55
2021/12/13 04:47:27;;;;;;;2.43;2.20;;;;;;;5.93;66.79;99493.94;5092438;28;20204;-56
2021/12/13 04:50:00;;;;;;;2.13;2.03;;;;;;;5.92;66.72;99496.47;5092355;28;20290;-56
2021/12/13 04:52:28;;;;;;;2.50;2.30;;;;;;;5.80;66.27;99485.78;5092587;28;20191;-56
2021/12/13 04:54:57;;;;;;;2.30;2.10;;;;;;;5.81;66.56;99495.19;5092350;28;20199;-56
2021/12/13 04:57:24;;;;;;;2.40;2.20;;;;;;;5.72;66.70;99475.34;5092280;28;20191;-56
2021/12/13 04:59:54;;;;;;;2.67;2.47;;;;;;;5.82;66.87;99489.28;5092470;28;20187;-56
2021/12/13 05:02:23;;;;;;;2.53;2.30;;;;;;;5.78;67.67;99489.97;5092340;28;20196;-56
2021/12/13 05:04:55;;;;;;;2.72;2.53;;;;;;;5.84;67.29;99501.25;5091083;28;20447;-56
2021/12/13 05:07:24;;;;;;;3.27;2.97;;;;;;;5.95;66.74;99504.22;5092141;28;20211;-56
2021/12/13 05:09:53;;;;;;;2.87;2.57;;;;;;;5.85;67.58;99505.56;5091970;28;20195;-56
2021/12/13 05:12:25;;;;;;;2.50;2.30;;;;;;;5.84;67.75;99506.38;5091961;28;20666;-56
2021/12/13 05:14:55;;;;;;;4.87;2.90;;;;;;;5.92;67.80;99509.19;5091813;28;20182;-56
2021/12/13 05:17:24;;;;;;;2.70;2.50;;;;;;;5.70;67.73;99484.63;5091825;28;20634;-56
2021/12/13 05:19:54;;;;;;;3.07;2.77;;;;;;;5.82;68.22;99513.06;5096980;28;20193;-56
2021/12/13 05:22:23;;;;;;;3.35;3.05;;;;;;;5.79;68.45;99512.13;5104769;28;20504;-56
2021/12/13 05:24:52;;;;;;;3.20;2.97;;;;;;;5.77;69.28;99509.50;5112271;28;20219;-56
2021/12/13 05:27:29;;;;;;;3.00;2.80;;;;;;;5.75;69.58;99510.25;5112598;28;20234;-56
2021/12/13 05:30:09;;;;;;;3.40;3.10;;;;;;;5.61;70.60;99507.22;5112343;28;20264;-56
2021/12/13 05:32:40;;;;;;;3.40;3.10;;;;;;;5.64;71.98;99512.44;5111829;28;20186;-56
2021/12/13 05:35:17;;;;;;;3.53;3.23;;;;;;;5.60;72.54;99520.78;5111937;28;20194;-56
2021/12/13 05:37:47;;;;;;;3.83;3.40;;;;;;;5.55;73.21;99521.44;5109244;28;20186;-56
2021/12/13 05:40:19;;;;;;;3.27;2.97;;;;;;;5.48;74.31;99524.56;5088451;28;20191;-56
2021/12/13 05:42:50;;;;;;;3.50;3.20;;;;;;;5.43;75.39;99542.22;5091325;28;20177;-56
2021/12/13 05:45:30;;;;;;;3.67;3.37;;;;;;;5.28;76.28;99537.44;5091034;28;20728;-56
2021/12/13 05:48:00;;;;;;;4.73;4.23;;;;;;;5.21;76.12;99537.16;5091099;28;20201;-57
2021/12/13 05:50:31;;;;;;;3.57;3.30;;;;;;;5.09;76.99;99534.13;5091226;28;20194;-56
2021/12/13 05:53:06;;;;;;;4.03;3.63;;;;;;;5.05;77.55;99548.44;5091010;28;20317;-56
2021/12/13 05:55:46;;;;;;;4.50;4.10;;;;;;;4.98;78.27;99531.16;5090856;28;20693;-56
2021/12/13 05:58:27;;;;;;;3.97;3.60;;;;;;;5.00;78.72;99534.63;5095599;28;20202;-56
2021/12/13 06:00:58;;;;;;;4.33;3.93;;;;;;;5.00;79.30;99543.97;5108391;28;20576;-57
2021/12/13 06:03:33;;;;;;;4.90;4.40;;;;;;;4.96;79.90;99548.06;5110922;28;20182;-57
2021/12/13 06:06:11;;;;;;;4.00;3.50;;;;;;;4.87;80.61;99541.72;5110867;28;20214;-57
2021/12/13 06:08:44;;;;;;;5.90;4.33;;;;;;;4.76;81.43;99526.03;5111532;28;20186;-57
2021/12/13 06:11:14;;;;;;;5.27;4.20;;;;;;;4.93;81.51;99558.13;5111372;28;20186;-57
2021/12/13 06:13:57;;;;;;;4.33;3.73;;;;;;;4.84;81.28;99557.75;5110790;28;20264;-57
2021/12/13 06:16:42;;;;;;;4.40;4.00;;;;;;;4.85;82.74;99559.50;5111137;28;20273;-57
2021/12/13 06:19:15;;;;;;;5.83;3.90;;;;;;;4.72;81.76;99559.84;5111631;28;20665;-57
2021/12/13 06:21:52;;;;;;;4.33;3.93;;;;;;;4.69;82.40;99554.63;5110626;28;20194;-57
2021/12/13 06:24:28;;;;;;;4.37;3.97;;;;;;;4.67;82.97;99553.66;5110633;28;20648;-57
2021/12/13 06:27:06;;;;;;;4.43;4.03;;;;;;;4.63;83.73;99557.78;5110881;28;20194;-57
2021/12/13 06:29:59;;;;;;;6.27;4.33;;;;;;;4.56;83.63;99562.56;5110557;28;20230;-57
2021/12/13 06:32:38;;;;;;;5.37;4.87;;;;;;;4.56;85.18;99565.97;5110342;28;20229;-57
2021/12/13 06:35:30;;;;;;;4.73;4.27;;;;;;;4.55;85.59;99564.25;5110632;28;20186;-58
2021/12/13 06:37:59;;;;;;;5.73;4.73;;;;;;;4.56;86.29;99571.03;5110610;28;20194;-57
2021/12/13 06:40:29;;;;;;;6.60;4.87;;;;;;;4.57;86.25;99572.78;5110520;28;20276;-57
2021/12/13 06:42:57;;;;;;;4.77;4.13;;;;;;;4.39;86.14;99563.53;5110469;28;20194;-57
2021/12/13 06:45:29;;;;;;;4.10;3.70;;;;;;;4.44;87.08;99570.56;5110365;28;20233;-57
2021/12/13 06:47:57;;;;;;;4.37;3.97;;;;;;;4.52;86.92;99581.03;5110328;28;20191;-57
2021/12/13 06:50:30;;;;;;;4.33;3.93;;;;;;;4.37;86.50;99583.81;5110334;28;20206;-57
2021/12/13 06:53:15;;;;;;;4.70;4.30;;;;;;;4.31;87.19;99573.41;5111157;28;20186;-57
2021/12/13 06:55:43;;;;;;;6.43;4.43;;;;;;;4.35;87.38;99582.88;5109997;28;20273;-57
2021/12/13 06:58:17;;;;;;;7.00;5.03;;;;;;;4.40;87.50;99583.06;5110225;28;20194;-56
2021/12/13 07:01:05;;;;;;;6.10;4.87;;;;;;;4.17;87.72;99549.91;5110217;28;20280;-57
2021/12/13 07:03:34;;;;;;;6.57;5.27;;;;;;;4.42;87.42;99594.19;5110169;28;20542;-56
2021/12/13 07:06:05;;;;;;;5.40;4.90;;;;;;;4.42;88.53;99596.75;5110484;28;20217;-56
2021/12/13 07:08:35;;;;;;;4.80;4.30;;;;;;;4.42;87.59;99599.28;5111199;28;20572;-57
2021/12/13 07:11:06;;;;;;;4.87;4.37;;;;;;;4.39;87.23;99606.78;5113980;28;20195;-56
2021/12/13 07:13:36;;;;;;;9.70;5.53;;;;;;;4.42;87.73;99604.38;5114463;28;20641;-57
2021/12/13 07:16:11;;;;;;;5.87;4.87;;;;;;;4.42;87.78;99609.47;5114307;28;20221;-57
2021/12/13 07:18:47;;;;;;;5.13;4.53;;;;;;;4.48;88.02;99630.91;5114394;28;20236;-57
2021/12/13 07:21:19;;;;;;;5.47;4.67;;;;;;;4.43;87.94;99617.13;5114049;28;20189;-58
2021/12/13 07:23:56;;;;;;;4.70;4.20;;;;;;;4.43;88.36;99619.69;5113944;28;20201;-57
2021/12/13 07:26:38;;;;;;;5.40;4.60;;;;;;;4.44;87.98;99625.66;5113899;28;20248;-57
2021/12/13 07:29:10;;;;;;;5.45;4.95;;;;;;;4.41;88.64;99615.34;5114016;28;20441;-57
2021/12/13 07:31:42;;;;;;;4.80;4.30;;;;;;;4.39;87.93;99637.31;5088382;28;20226;-57
2021/12/13 07:34:15;;;;;;;5.00;4.50;;;;;;;4.42;88.92;99645.06;5093616;28;20209;-58
2021/12/13 07:36:42;;;;;;;5.10;4.60;;;;;;;4.35;88.61;99643.03;5094100;28;20186;-57
2021/12/13 07:39:14;;;;;;;5.27;4.77;;;;;;;4.32;88.96;99655.63;5093627;28;20192;-57
2021/12/13 07:41:47;;;;;;;5.23;4.73;;;;;;;4.29;89.25;99655.50;5093383;28;20195;-57
2021/12/13 07:44:26;;;;;;;5.67;5.13;;;;;;;4.22;89.96;99625.53;5093476;28;20186;-56
2021/12/13 07:47:02;;;;;;;4.70;4.30;;;;;;;4.46;89.38;99672.34;5093010;28;20221;-57
2021/12/13 07:49:33;;;;;;;6.97;5.23;;;;;;;4.38;89.17;99676.25;5093347;28;20194;-56
2021/12/13 07:52:02;;;;;;;6.40;5.30;;;;;;;4.44;89.44;99671.44;5093015;28;20191;-56
2021/12/13 07:54:39;;;;;;;5.43;4.93;;;;;;;4.34;90.48;99667.59;5092905;28;20199;-57
2021/12/13 07:57:17;;;;;;;6.67;5.50;;;;;;;4.41;89.61;99677.25;5092986;28;20273;-57
2021/12/13 07:59:44;;;;;;;7.67;5.57;;;;;;;4.45;89.58;99673.19;5092972;28;20218;-57
2021/12/13 08:02:25;;;;;;;6.97;5.80;;;;;;;4.43;89.14;99674.78;5092602;28;20586;-58
2021/12/13 08:04:54;;;;;;;6.30;5.65;;;;;;;4.47;89.54;99671.56;5092652;28;20470;-58
2021/12/13 08:07:25;;;;;;;6.90;6.20;;;;;;;4.46;90.04;99677.44;5092999;28;20214;-56
2021/12/13 08:09:54;;;;;;;6.57;5.67;;;;;;;4.44;90.24;99687.56;5093050;28;20191;-57
2021/12/13 08:12:25;;;;;;;7.68;6.97;;;;;;;4.41;90.43;99692.53;5092364;28;20450;-57
2021/12/13 08:14:54;;;;;;;6.83;5.73;;;;;;;4.48;89.64;99688.53;5100663;28;20202;-57
2021/12/13 08:17:25;;;;;;;7.63;5.67;;;;;;;4.46;90.67;99695.25;5100180;28;20198;-57
2021/12/13 08:19:56;;;;;;;7.07;5.90;;;;;;;4.46;90.58;99685.06;5111938;28;20306;-57
2021/12/13 08:22:28;;;;;;;6.20;5.60;;;;;;;4.22;90.49;99650.97;5112794;28;20195;-57
2021/12/13 08:24:58;;;;;;;6.73;5.43;;;;;;;4.58;90.19;99699.22;5112967;28;20273;-57
2021/12/13 08:27:30;;;;;;;7.30;5.97;;;;;;;4.52;90.25;99690.44;5113111;28;20730;-58
2021/12/13 08:30:09;;;;;;;6.10;4.90;;;;;;;4.53;90.43;99697.28;5112911;28;20205;-57
2021/12/13 08:32:37;;;;;;;6.57;5.70;;;;;;;4.51;90.44;99691.22;5113165;28;20204;-57
2021/12/13 08:35:07;;;;;;;7.53;6.07;;;;;;;4.52;90.61;99700.63;5112830;28;20191;-57
2021/12/13 08:37:37;;;;;;;6.50;5.80;;;;;;;4.47;90.76;99697.00;5112661;28;20179;-57
2021/12/13 08:40:10;;;;;;;7.53;6.72;;;;;;;4.47;91.00;99699.56;5111639;28;20434;-57
2021/12/13 08:42:40;;;;;;;6.50;5.90;;;;;;;4.53;90.50;99702.38;5113085;28;20293;-58
2021/12/13 08:45:12;;;;;;;6.77;6.07;;;;;;;4.49;90.29;99703.91;5112452;28;20189;-57
2021/12/13 08:47:43;;;;;;;5.93;5.33;;;;;;;4.43;90.32;99697.66;5112697;28;20573;-56
2021/12/13 08:50:16;;;;;;;8.37;6.10;;;;;;;4.42;91.24;99693.41;5112575;28;20199;-56
2021/12/13 08:52:45;;;;;;;8.30;5.90;;;;;;;4.42;90.82;99701.03;5112627;28;20649;-56
2021/12/13 08:55:22;;;;;;;7.47;5.60;;;;;;;4.41;91.44;99689.97;5112879;28;20194;-56
2021/12/13 08:57:53;;;;;;;6.47;5.63;;;;;;;4.43;90.76;99696.00;5106649;28;20284;-55
2021/12/13 09:00:32;;;;;;;8.20;5.80;;;;;;;4.49;91.64;99690.31;5096512;28;20202;-56
2021/12/13 09:03:12;;;;;;;7.07;6.03;;;;;;;4.53;91.56;99692.19;5070831;28;20473;-56
2021/12/13 09:05:50;;;;;;;7.27;6.23;;;;;;;4.60;91.64;99689.97;5071016;28;20303;-56
2021/12/13 09:08:18;;;;;;;6.90;6.20;;;;;;;4.54;90.98;99693.91;5070986;28;20194;-56
2021/12/13 09:10:48;;;;;;;7.13;6.23;;;;;;;4.52;91.35;99683.69;5071554;28;20619;-57
2021/12/13 09:13:20;;;;;;;6.83;5.87;;;;;;;4.46;91.23;99687.63;5071281;28;20570;-56
2021/12/13 09:15:49;;;;;;;8.57;7.28;;;;;;;4.54;91.00;99688.81;5070700;28;20524;-56
2021/12/13 09:18:23;;;;;;;9.67;6.60;;;;;;;4.57;91.57;99684.75;5071698;28;20556;-56
2021/12/13 09:20:54;;;;;;;6.03;5.43;;;;;;;4.53;91.55;99682.84;5071616;28;20566;-60
2021/12/13 09:23:24;;;;;;;8.07;6.23;;;;;;;4.53;91.60;99682.00;5070910;28;20235;-62
2021/12/13 09:25:54;;;;;;;7.07;5.80;;;;;;;4.64;91.95;99680.78;5070729;28;20696;-62
2021/12/13 09:28:24;;;;;;;8.23;6.03;;;;;;;4.51;92.21;99676.84;5071029;28;20199;-63
2021/12/13 09:30:54;;;;;;;8.17;6.43;;;;;;;4.54;92.22;99681.19;5070500;28;20316;-62
2021/12/13 09:33:24;;;;;;;6.50;5.63;;;;;;;4.54;91.70;99686.28;5070979;28;20190;-63
2021/12/13 09:35:57;;;;;;;7.80;5.97;;;;;;;4.58;91.84;99683.06;5071358;28;20189;-62
2021/12/13 09:38:34;;;;;;;5.73;5.13;;;;;;;4.57;92.26;99684.75;5070677;28;20191;-63
2021/12/13 09:41:21;;;;;;;6.00;5.40;;;;;;;4.54;91.17;99682.06;5070637;28;20191;-63
2021/12/13 09:43:53;;;;;;;7.87;6.00;;;;;;;4.47;91.46;99680.06;5071106;28;20191;-63
2021/12/13 09:46:28;;;;;;;6.20;5.60;;;;;;;4.41;91.76;99687.44;5071312;28;20215;-63
2021/12/13 09:48:59;;;;;;;7.27;5.63;;;;;;;4.48;92.09;99694.50;5091308;28;20243;-63
2021/12/13 09:51:31;;;;;;;5.83;5.23;;;;;;;4.27;92.30;99652.03;5091812;28;20719;-61
2021/12/13 09:54:02;;;;;;;6.37;5.37;;;;;;;4.55;92.42;99685.47;5070329;28;20185;-63
2021/12/13 09:56:36;;;;;;;6.07;5.47;;;;;;;4.62;91.89;99690.88;5070824;28;20212;-63
2021/12/13 09:59:12;;;;;;;6.40;5.50;;;;;;;4.55;91.57;99676.19;5070835;28;20223;-62
2021/12/13 10:01:41;;;;;;;6.60;5.10;;;;;;;4.46;91.51;99678.31;5073218;28;20269;-62
2021/12/13 10:04:12;;;;;;;6.30;5.27;;;;;;;4.37;91.46;99667.75;5078502;28;20192;-63
2021/12/13 10:06:41;;;;;;;7.23;5.47;;;;;;;4.39;91.94;99678.88;5070574;28;20219;-62
2021/12/13 10:09:16;;;;;;;6.33;5.37;;;;;;;4.36;91.96;99681.28;5070030;28;20282;-62
2021/12/13 10:11:46;;;;;;;6.27;5.60;;;;;;;4.37;92.03;99671.97;5069149;28;20442;-62
2021/12/13 10:14:19;;;;;;;7.00;6.17;;;;;;;4.41;91.75;99674.72;5070162;28;20196;-62
2021/12/13 10:16:48;;;;;;;5.83;5.23;;;;;;;4.46;92.21;99675.78;5070431;28;20189;-61
2021/12/13 10:19:22;;;;;;;7.67;5.90;;;;;;;4.40;91.97;99684.81;5070153;28;20202;-61
2021/12/13 10:21:50;;;;;;;6.83;6.13;;;;;;;4.24;92.44;99639.19;5070311;28;20295;-62
2021/12/13 10:24:22;;;;;;;6.63;5.90;;;;;;;4.35;91.76;99674.44;5070341;28;20686;-62
2021/12/13 10:26:52;;;;;;;9.77;6.50;;;;;;;4.35;92.48;99677.00;5075453;28;20618;-61
2021/12/13 10:29:20;;;;;;;6.77;5.97;;;;;;;4.44;92.21;99672.31;5090570;28;20673;-61
2021/12/13 10:31:51;;;;;;;6.27;5.43;;;;;;;4.39;91.78;99683.09;5090143;28;20226;-62
2021/12/13 10:34:22;;;;;;;6.77;5.67;;;;;;;4.37;91.59;99682.16;5090193;28;20202;-62
2021/12/13 10:36:55;;;;;;;7.63;6.20;;;;;;;4.34;92.49;99680.31;5090105;28;20191;-62
2021/12/13 10:39:26;;;;;;;7.10;5.90;;;;;;;4.36;93.23;99691.47;5090239;28;20186;-63
2021/12/13 10:41:56;;;;;;;6.20;5.60;;;;;;;4.48;92.90;99683.47;5085795;28;20269;-62
2021/12/13 10:44:28;;;;;;;8.70;7.00;;;;;;;4.42;93.05;99686.63;5088588;28;20199;-63
2021/12/13 10:46:59;;;;;;;8.00;5.97;;;;;;;4.40;93.00;99678.06;5089876;28;20219;-63
2021/12/13 10:49:29;;;;;;;7.47;5.67;;;;;;;4.39;92.26;99670.38;5089818;28;20197;-63
2021/12/13 10:51:59;;;;;;;7.43;5.97;;;;;;;4.43;92.31;99670.56;5089768;28;20282;-63
2021/12/13 10:54:31;;;;;;;6.80;5.67;;;;;;;4.42;92.40;99673.91;5089723;28;20279;-63
2021/12/13 10:57:02;;;;;;;7.97;6.40;;;;;;;4.53;92.42;99665.03;5089750;28;20229;-63
2021/12/13 10:59:34;;;;;;;6.87;5.70;;;;;;;4.49;92.82;99667.41;5090110;28;20309;-63
2021/12/13 11:02:04;;;;;;;7.37;6.10;;;;;;;4.48;92.23;99668.19;5090176;28;20621;-63
2021/12/13 11:04:36;;;;;;;7.57;6.30;;;;;;;4.50;91.86;99664.94;5089904;28;20727;-62
2021/12/13 11:07:07;;;;;;;7.63;6.80;;;;;;;4.50;92.29;99667.50;5089707;28;20249;-62
2021/12/13 11:09:37;;;;;;;7.30;6.13;;;;;;;4.53;91.85;99662.50;5089902;28;20191;-62
2021/12/13 11:12:07;;;;;;;6.50;5.87;;;;;;;4.41;91.44;99663.66;5089684;28;20261;-62
2021/12/13 11:14:37;;;;;;;8.40;6.80;;;;;;;4.44;92.70;99661.25;5089093;28;20190;-62
2021/12/13 11:17:09;;;;;;;8.03;5.90;;;;;;;4.45;92.80;99657.94;5088847;28;20193;-63
2021/12/13 11:19:41;;;;;;;9.73;6.43;;;;;;;4.34;92.51;99656.59;5088782;28;20270;-62
2021/12/13 11:22:10;;;;;;;7.00;5.63;;;;;;;4.34;93.16;99654.06;5073796;28;20275;-63
2021/12/13 11:24:41;;;;;;;7.23;6.17;;;;;;;4.39;93.27;99655.09;5067833;28;20282;-62
2021/12/13 11:27:13;;;;;;;9.57;5.90;;;;;;;4.42;92.45;99667.97;5068662;28;20215;-63
2021/12/13 11:29:42;;;;;;;6.17;5.43;;;;;;;4.43;92.32;99651.88;5068782;28;20288;-62
2021/12/13 11:32:44;;;;;;;5.73;4.97;;;;;;;4.40;92.66;99661.91;5068833;28;20223;-63
2021/12/13 11:35:59;;;;;;;6.67;5.63;;;;;;;4.40;92.92;99662.78;5069511;28;20725;-62
2021/12/13 11:38:51;;;;;;;7.17;6.00;;;;;;;4.43;92.69;99660.38;5007452;28;20345;-62
2021/12/13 11:41:38;;;;;;;6.30;5.70;;;;;;;4.34;93.30;99664.22;5068904;28;20243;-62
2021/12/13 11:44:21;;;;;;;6.37;5.30;;;;;;;4.30;93.11;99659.78;5068971;28;20197;-63
2021/12/13 11:47:24;;;;;;;6.20;5.30;;;;;;;4.31;92.68;99669.16;5069168;28;20315;-63
2021/12/13 11:50:09;;;;;;;6.40;5.77;;;;;;;4.25;92.73;99658.72;5069657;28;20192;-63
2021/12/13 11:53:00;;;;;;;7.37;5.63;;;;;;;4.25;92.23;99661.28;5069463;28;20278;-62
2021/12/13 11:55:44;;;;;;;6.30;5.70;;;;;;;4.17;92.92;99653.31;5071760;28;20204;-62
2021/12/13 11:58:35;;;;;;;6.50;5.80;;;;;;;4.22;93.46;99656.03;5072939;28;20278;-63
2021/12/13 12:01:40;;;;;;;8.83;6.50;;;;;;;4.22;92.60;99656.94;5073394;28;20201;-63
2021/12/13 12:04:55;;;;;;;6.63;5.93;;;;;;;4.20;93.56;99655.13;5072902;28;20245;-62
2021/12/13 12:07:44;;;;;;;8.60;5.43;;;;;;;4.16;93.66;99662.59;5073332;28;20223;-62
2021/12/13 12:10:20;;;;;;;6.87;6.03;;;;;;;4.10;93.84;99667.41;5072834;28;20288;-62
2021/12/13 12:13:11;;;;;;;8.53;6.43;;;;;;;4.21;93.55;99662.78;5072403;28;20199;-63